sensor_id;sensor_type;location;lat;lon;timestamp;pressure;altitude;pressure_sealevel;temperature;humidity
7662;BME280;30314;48.184;11.510;2023-02-14T00:00:38;97764.28;;;-0.58;100.00
7662;BME280;30314;48.184;11.510;2023-02-14T00:03:05;97751.09;;;-0.48;100.00
7662;BME280;30314;48.184;11.510;2023-02-14T00:05:31;97745.00;;;-0.63;100.00
7662;BME280;30314;48.184;11.510;2023-02-14T00:07:58;97765.25;;;-0.59;100.00
7662;BME280;30314;48.184;11.510;2023-02-14T00:10:24;97753.97;;;-0.74;100.00
7662;BME280;30314;48.184;11.510;2023-02-14T00:12:51;97750.88;;;-0.86;100.00
7662;BME280;30314;48.184;11.510;2023-02-14T00:15:18;97756.84;;;-0.61;100.00
7662;BME280;30314;48.184;11.510;2023-02-14T00:17:51;97777.13;;;-0.24;100.00
7662;BME280;30314;48.184;11.510;2023-02-14T00:20:23;97785.97;;;-0.34;100.00
7662;BME280;30314;48.184;11.510;2023-02-14T00:22:51;97776.28;;;-0.48;100.00
7662;BME280;30314;48.184;11.510;2023-02-14T00:25:18;97771.09;;;-0.65;100.00
7662;BME280;30314;48.184;11.510;2023-02-14T00:27:44;97767.22;;;-0.69;100.00
7662;BME280;30314;48.184;11.510;2023-02-14T00:30:12;97764.47;;;-0.67;100.00
7662;BME280;30314;48.184;11.510;2023-02-14T00:32:39;97771.72;;;-0.54;100.00
7662;BME280;30314;48.184;11.510;2023-02-14T00:35:08;97769.00;;;-0.61;100.00
7662;BME280;30314;48.184;11.510;2023-02-14T00:37:35;97775.00;;;-0.61;100.00
7662;BME280;30314;48.184;11.510;2023-02-14T00:40:02;97778.59;;;-0.62;100.00
7662;BME280;30314;48.184;11.510;2023-02-14T00:42:30;97770.41;;;-0.50;100.00
7662;BME280;30314;48.184;11.510;2023-02-14T00:44:57;97762.19;;;-0.62;100.00
7662;BME280;30314;48.184;11.510;2023-02-14T00:47:23;97762.69;;;-0.67;100.00
7662;BME280;30314;48.184;11.510;2023-02-14T00:49:50;97736.31;;;-0.39;100.00
7662;BME280;30314;48.184;11.510;2023-02-14T00:52:17;97766.19;;;-0.43;100.00
7662;BME280;30314;48.184;11.510;2023-02-14T00:54:43;97764.28;;;-0.58;100.00
7662;BME280;30314;48.184;11.510;2023-02-14T00:57:12;97750.19;;;-0.63;100.00
7662;BME280;30314;48.184;11.510;2023-02-14T00:59:38;97756.66;;;-0.59;100.00
7662;BME280;30314;48.184;11.510;2023-02-14T01:02:05;97761.34;;;-0.54;100.00
7662;BME280;30314;48.184;11.510;2023-02-14T01:04:33;97785.53;;;-0.54;100.00
7662;BME280;30314;48.184;11.510;2023-02-14T01:06:59;97774.53;;;-0.73;100.00
7662;BME280;30314;48.184;11.510;2023-02-14T01:09:26;97784.75;;;-0.63;100.00
7662;BME280;30314;48.184;11.510;2023-02-14T01:11:52;97777.47;;;-0.76;100.00
7662;BME280;30314;48.184;11.510;2023-02-14T01:14:19;97783.78;;;-0.78;100.00
7662;BME280;30314;48.184;11.510;2023-02-14T01:16:45;97784.13;;;-0.73;100.00
7662;BME280;30314;48.184;11.510;2023-02-14T01:19:12;97785.06;;;-0.58;100.00
7662;BME280;30314;48.184;11.510;2023-02-14T01:21:42;97775.84;;;-0.68;100.00
7662;BME280;30314;48.184;11.510;2023-02-14T01:24:09;97757.53;;;-0.75;100.00
7662;BME280;30314;48.184;11.510;2023-02-14T01:26:38;97763.16;;;-0.55;100.00
7662;BME280;30314;48.184;11.510;2023-02-14T01:29:04;97774.66;;;-0.58;100.00
7662;BME280;30314;48.184;11.510;2023-02-14T01:31:33;97781.47;;;-0.56;100.00
7662;BME280;30314;48.184;11.510;2023-02-14T01:34:00;97781.47;;;-0.48;100.00
7662;BME280;30314;48.184;11.510;2023-02-14T01:36:30;97788.97;;;-0.62;100.00
7662;BME280;30314;48.184;11.510;2023-02-14T01:38:59;97777.41;;;-0.59;100.00
7662;BME280;30314;48.184;11.510;2023-02-14T01:41:29;97783.28;;;-0.65;100.00
7662;BME280;30314;48.184;11.510;2023-02-14T01:44:00;97796.13;;;-0.72;100.00
7662;BME280;30314;48.184;11.510;2023-02-14T01:46:33;97789.94;;;-0.71;100.00
7662;BME280;30314;48.184;11.510;2023-02-14T01:49:08;97762.19;;;-0.70;100.00
7662;BME280;30314;48.184;11.510;2023-02-14T01:51:37;97774.53;;;-0.64;100.00
7662;BME280;30314;48.184;11.510;2023-02-14T01:54:07;97780.34;;;-0.70;100.00
7662;BME280;30314;48.184;11.510;2023-02-14T01:56:40;97776.63;;;-0.60;100.00
7662;BME280;30314;48.184;11.510;2023-02-14T01:59:14;97769.50;;;-0.66;100.00
7662;BME280;30314;48.184;11.510;2023-02-14T02:01:43;97784.09;;;-0.65;100.00
7662;BME280;30314;48.184;11.510;2023-02-14T02:04:21;97774.22;;;-0.78;100.00
7662;BME280;30314;48.184;11.510;2023-02-14T02:06:53;97780.22;;;-0.69;100.00
7662;BME280;30314;48.184;11.510;2023-02-14T02:09:43;97788.97;;;-0.70;100.00
7662;BME280;30314;48.184;11.510;2023-02-14T02:12:12;97769.19;;;-0.79;100.00
7662;BME280;30314;48.184;11.510;2023-02-14T02:14:39;97790.59;;;-0.69;100.00
7662;BME280;30314;48.184;11.510;2023-02-14T02:25:53;97787.53;;;-0.81;100.00
7662;BME280;30314;48.184;11.510;2023-02-14T02:40:01;97759.66;;;-0.87;100.00
7662;BME280;30314;48.184;11.510;2023-02-14T02:42:35;97770.34;;;-0.90;100.00
7662;BME280;30314;48.184;11.510;2023-02-14T02:47:56;97768.91;;;-1.01;100.00
7662;BME280;30314;48.184;11.510;2023-02-14T02:50:33;97765.97;;;-0.90;100.00
7662;BME280;30314;48.184;11.510;2023-02-14T02:53:37;97743.59;;;-0.91;100.00
7662;BME280;30314;48.184;11.510;2023-02-14T02:56:23;97745.53;;;-0.93;100.00
7662;BME280;30314;48.184;11.510;2023-02-14T02:59:18;97748.16;;;-0.93;100.00
7662;BME280;30314;48.184;11.510;2023-02-14T03:02:11;97763.38;;;-0.90;100.00
7662;BME280;30314;48.184;11.510;2023-02-14T03:04:42;97755.78;;;-0.91;100.00
7662;BME280;30314;48.184;11.510;2023-02-14T03:07:40;97735.50;;;-0.96;100.00
7662;BME280;30314;48.184;11.510;2023-02-14T03:10:13;97754.13;;;-0.84;100.00
7662;BME280;30314;48.184;11.510;2023-02-14T03:19:38;97762.56;;;-0.82;100.00
7662;BME280;30314;48.184;11.510;2023-02-14T03:21:43;97752.06;;;-0.97;100.00
7662;BME280;30314;48.184;11.510;2023-02-14T03:24:25;97755.94;;;-1.09;100.00
7662;BME280;30314;48.184;11.510;2023-02-14T03:27:03;97762.91;;;-1.02;100.00
7662;BME280;30314;48.184;11.510;2023-02-14T03:32:19;97754.03;;;-1.24;100.00
7662;BME280;30314;48.184;11.510;2023-02-14T03:34:55;97760.19;;;-1.25;100.00
7662;BME280;30314;48.184;11.510;2023-02-14T03:37:38;97760.34;;;-1.26;100.00
7662;BME280;30314;48.184;11.510;2023-02-14T03:40:21;97735.22;;;-1.18;100.00
7662;BME280;30314;48.184;11.510;2023-02-14T03:42:56;97752.06;;;-1.22;100.00
7662;BME280;30314;48.184;11.510;2023-02-14T03:45:46;97764.06;;;-1.21;100.00
7662;BME280;30314;48.184;11.510;2023-02-14T03:48:18;97761.16;;;-1.26;100.00
7662;BME280;30314;48.184;11.510;2023-02-14T03:50:47;97752.22;;;-1.23;100.00
7662;BME280;30314;48.184;11.510;2023-02-14T03:53:19;97743.31;;;-1.21;100.00
7662;BME280;30314;48.184;11.510;2023-02-14T03:58:34;97769.56;;;-0.99;100.00
7662;BME280;30314;48.184;11.510;2023-02-14T04:01:31;97773.13;;;-1.00;100.00
7662;BME280;30314;48.184;11.510;2023-02-14T04:04:00;97762.94;;;-1.26;100.00
7662;BME280;30314;48.184;11.510;2023-02-14T04:06:27;97743.97;;;-1.44;100.00
7662;BME280;30314;48.184;11.510;2023-02-14T04:08:54;97759.53;;;-1.19;100.00
7662;BME280;30314;48.184;11.510;2023-02-14T04:11:20;97763.25;;;-1.13;100.00
7662;BME280;30314;48.184;11.510;2023-02-14T04:13:49;97747.38;;;-1.18;100.00
7662;BME280;30314;48.184;11.510;2023-02-14T04:16:16;97735.22;;;-1.09;100.00
7662;BME280;30314;48.184;11.510;2023-02-14T04:18:42;97757.56;;;-1.08;100.00
7662;BME280;30314;48.184;11.510;2023-02-14T04:21:27;97771.34;;;-0.91;100.00
7662;BME280;30314;48.184;11.510;2023-02-14T04:23:54;97770.53;;;-1.08;100.00
7662;BME280;30314;48.184;11.510;2023-02-14T04:26:20;97747.88;;;-1.15;100.00
7662;BME280;30314;48.184;11.510;2023-02-14T04:28:47;97767.44;;;-1.12;100.00
7662;BME280;30314;48.184;11.510;2023-02-14T04:31:13;97758.38;;;-1.24;100.00
7662;BME280;30314;48.184;11.510;2023-02-14T04:33:40;97751.56;;;-0.92;100.00
7662;BME280;30314;48.184;11.510;2023-02-14T04:36:06;97752.97;;;-0.73;100.00
7662;BME280;30314;48.184;11.510;2023-02-14T04:38:33;97757.38;;;-0.98;100.00
7662;BME280;30314;48.184;11.510;2023-02-14T04:40:59;97756.28;;;-1.37;100.00
7662;BME280;30314;48.184;11.510;2023-02-14T04:43:27;97763.28;;;-1.21;100.00
7662;BME280;30314;48.184;11.510;2023-02-14T04:45:54;97730.69;;;-1.57;100.00
7662;BME280;30314;48.184;11.510;2023-02-14T04:48:20;97721.78;;;-1.63;100.00
7662;BME280;30314;48.184;11.510;2023-02-14T04:50:51;97753.88;;;-1.47;100.00
7662;BME280;30314;48.184;11.510;2023-02-14T04:53:19;97759.38;;;-1.42;100.00
7662;BME280;30314;48.184;11.510;2023-02-14T04:55:49;97751.44;;;-1.40;100.00
7662;BME280;30314;48.184;11.510;2023-02-14T04:58:16;97739.78;;;-1.53;100.00
7662;BME280;30314;48.184;11.510;2023-02-14T05:00:42;97732.63;;;-1.26;100.00
7662;BME280;30314;48.184;11.510;2023-02-14T05:03:09;97678.53;;;-1.62;100.00
7662;BME280;30314;48.184;11.510;2023-02-14T05:05:35;97722.88;;;-1.07;100.00
7662;BME280;30314;48.184;11.510;2023-02-14T05:08:02;97725.81;;;-1.02;100.00
7662;BME280;30314;48.184;11.510;2023-02-14T05:10:28;97732.91;;;-1.04;100.00
7662;BME280;30314;48.184;11.510;2023-02-14T05:12:55;97737.16;;;-1.11;100.00
7662;BME280;30314;48.184;11.510;2023-02-14T05:15:21;97727.75;;;-1.21;100.00
7662;BME280;30314;48.184;11.510;2023-02-14T05:17:48;97731.34;;;-1.22;100.00
7662;BME280;30314;48.184;11.510;2023-02-14T05:20:14;97718.69;;;-1.25;100.00
7662;BME280;30314;48.184;11.510;2023-02-14T05:22:41;97704.94;;;-1.42;100.00
7662;BME280;30314;48.184;11.510;2023-02-14T05:25:07;97707.03;;;-1.46;100.00
7662;BME280;30314;48.184;11.510;2023-02-14T05:27:34;97720.34;;;-1.40;100.00
7662;BME280;30314;48.184;11.510;2023-02-14T05:30:00;97732.31;;;-1.31;100.00
7662;BME280;30314;48.184;11.510;2023-02-14T05:32:27;97728.09;;;-1.24;100.00
7662;BME280;30314;48.184;11.510;2023-02-14T05:34:53;97709.13;;;-1.24;100.00
7662;BME280;30314;48.184;11.510;2023-02-14T05:37:20;97714.16;;;-1.31;100.00
7662;BME280;30314;48.184;11.510;2023-02-14T05:39:46;97713.50;;;-1.33;100.00
7662;BME280;30314;48.184;11.510;2023-02-14T05:42:13;97711.25;;;-1.36;100.00
7662;BME280;30314;48.184;11.510;2023-02-14T05:44:39;97724.38;;;-1.21;100.00
7662;BME280;30314;48.184;11.510;2023-02-14T05:47:06;97729.19;;;-1.10;100.00
7662;BME280;30314;48.184;11.510;2023-02-14T05:49:34;97720.63;;;-1.19;100.00
7662;BME280;30314;48.184;11.510;2023-02-14T05:52:01;97740.06;;;-1.06;100.00
7662;BME280;30314;48.184;11.510;2023-02-14T05:54:27;97699.09;;;-1.36;100.00
7662;BME280;30314;48.184;11.510;2023-02-14T05:56:54;97733.25;;;-1.07;100.00
7662;BME280;30314;48.184;11.510;2023-02-14T05:59:20;97742.94;;;-0.93;100.00
7662;BME280;30314;48.184;11.510;2023-02-14T06:01:47;97744.13;;;-0.95;100.00
7662;BME280;30314;48.184;11.510;2023-02-14T06:04:13;97727.44;;;-1.09;100.00
7662;BME280;30314;48.184;11.510;2023-02-14T06:06:40;97729.19;;;-1.10;100.00
7662;BME280;30314;48.184;11.510;2023-02-14T06:09:06;97724.84;;;-1.09;100.00
7662;BME280;30314;48.184;11.510;2023-02-14T06:11:33;97727.44;;;-1.01;100.00
7662;BME280;30314;48.184;11.510;2023-02-14T06:13:59;97729.03;;;-1.08;100.00
7662;BME280;30314;48.184;11.510;2023-02-14T06:16:26;97738.78;;;-1.19;100.00
7662;BME280;30314;48.184;11.510;2023-02-14T06:18:53;97742.16;;;-1.02;100.00
7662;BME280;30314;48.184;11.510;2023-02-14T06:21:19;97729.88;;;-1.33;100.00
7662;BME280;30314;48.184;11.510;2023-02-14T06:23:46;97746.88;;;-1.22;100.00
7662;BME280;30314;48.184;11.510;2023-02-14T06:26:12;97755.63;;;-1.06;100.00
7662;BME280;30314;48.184;11.510;2023-02-14T06:28:39;97743.34;;;-1.29;100.00
7662;BME280;30314;48.184;11.510;2023-02-14T06:31:06;97741.56;;;-1.45;100.00
7662;BME280;30314;48.184;11.510;2023-02-14T06:33:32;97744.78;;;-1.26;100.00
7662;BME280;30314;48.184;11.510;2023-02-14T06:35:59;97754.03;;;-1.16;100.00
7662;BME280;30314;48.184;11.510;2023-02-14T06:38:25;97746.25;;;-1.16;100.00
7662;BME280;30314;48.184;11.510;2023-02-14T06:40:52;97753.53;;;-1.19;100.00
7662;BME280;30314;48.184;11.510;2023-02-14T06:43:18;97743.66;;;-1.40;100.00
7662;BME280;30314;48.184;11.510;2023-02-14T06:45:45;97750.47;;;-1.39;100.00
7662;BME280;30314;48.184;11.510;2023-02-14T06:48:12;97754.81;;;-1.40;100.00
7662;BME280;30314;48.184;11.510;2023-02-14T06:50:38;97728.59;;;-1.62;100.00
7662;BME280;30314;48.184;11.510;2023-02-14T06:53:05;97745.94;;;-1.37;100.00
7662;BME280;30314;48.184;11.510;2023-02-14T06:55:31;97759.38;;;-1.34;100.00
7662;BME280;30314;48.184;11.510;2023-02-14T06:57:58;97748.00;;;-1.24;100.00
7662;BME280;30314;48.184;11.510;2023-02-14T07:00:24;97746.09;;;-1.31;100.00
7662;BME280;30314;48.184;11.510;2023-02-14T07:02:51;97741.88;;;-1.32;100.00
7662;BME280;30314;48.184;11.510;2023-02-14T07:05:18;97735.22;;;-1.43;100.00
7662;BME280;30314;48.184;11.510;2023-02-14T07:07:45;97757.44;;;-1.32;100.00
7662;BME280;30314;48.184;11.510;2023-02-14T07:10:11;97730.53;;;-1.39;100.00
7662;BME280;30314;48.184;11.510;2023-02-14T07:12:38;97743.81;;;-1.34;100.00
7662;BME280;30314;48.184;11.510;2023-02-14T07:15:09;97763.25;;;-1.30;100.00
7662;BME280;30314;48.184;11.510;2023-02-14T07:17:36;97742.66;;;-1.31;100.00
7662;BME280;30314;48.184;11.510;2023-02-14T07:20:07;97736.19;;;-1.44;100.00
7662;BME280;30314;48.184;11.510;2023-02-14T07:22:35;97757.56;;;-1.08;100.00
7662;BME280;30314;48.184;11.510;2023-02-14T07:25:02;97758.38;;;-1.00;100.00
7662;BME280;30314;48.184;11.510;2023-02-14T07:27:29;97756.56;;;-0.91;100.00
7662;BME280;30314;48.184;11.510;2023-02-14T07:29:56;97756.78;;;-1.17;100.00
7662;BME280;30314;48.184;11.510;2023-02-14T07:32:22;97746.41;;;-1.17;100.00
7662;BME280;30314;48.184;11.510;2023-02-14T07:34:50;97751.25;;;-1.06;100.00
7662;BME280;30314;48.184;11.510;2023-02-14T07:37:17;97747.72;;;-1.21;100.00
7662;BME280;30314;48.184;11.510;2023-02-14T07:39:44;97737.19;;;-1.36;100.00
7662;BME280;30314;48.184;11.510;2023-02-14T07:42:11;97741.06;;;-1.32;100.00
7662;BME280;30314;48.184;11.510;2023-02-14T07:44:37;97740.56;;;-1.28;100.00
7662;BME280;30314;48.184;11.510;2023-02-14T07:47:05;97724.06;;;-1.35;100.00
7662;BME280;30314;48.184;11.510;2023-02-14T07:49:32;97727.13;;;-1.15;100.00
7662;BME280;30314;48.184;11.510;2023-02-14T07:51:58;97718.66;;;-1.08;100.00
7662;BME280;30314;48.184;11.510;2023-02-14T07:54:25;97712.22;;;-1.12;100.00
7662;BME280;30314;48.184;11.510;2023-02-14T07:56:51;97721.25;;;-1.17;100.00
7662;BME280;30314;48.184;11.510;2023-02-14T07:59:18;97720.81;;;-1.29;100.00
7662;BME280;30314;48.184;11.510;2023-02-14T08:01:44;97713.50;;;-1.25;100.00
7662;BME280;30314;48.184;11.510;2023-02-14T08:04:11;97726.94;;;-1.13;100.00
7662;BME280;30314;48.184;11.510;2023-02-14T08:06:41;97724.19;;;-1.11;100.00
7662;BME280;30314;48.184;11.510;2023-02-14T08:09:08;97716.06;;;-1.08;100.00
7662;BME280;30314;48.184;11.510;2023-02-14T08:11:36;97709.56;;;-1.04;100.00
7662;BME280;30314;48.184;11.510;2023-02-14T08:14:21;97706.81;;;-0.94;100.00
7662;BME280;30314;48.184;11.510;2023-02-14T08:16:48;97705.66;;;-0.83;100.00
7662;BME280;30314;48.184;11.510;2023-02-14T08:19:14;97706.63;;;-0.84;100.00
7662;BME280;30314;48.184;11.510;2023-02-14T08:21:41;97699.47;;;-0.82;100.00
7662;BME280;30314;48.184;11.510;2023-02-14T08:24:07;97704.09;;;-1.01;100.00
7662;BME280;30314;48.184;11.510;2023-02-14T08:26:34;97692.53;;;-0.90;100.00
7662;BME280;30314;48.184;11.510;2023-02-14T08:29:00;97709.66;;;-0.73;100.00
7662;BME280;30314;48.184;11.510;2023-02-14T08:31:30;97703.34;;;-0.78;100.00
7662;BME280;30314;48.184;11.510;2023-02-14T08:34:02;97689.13;;;-0.91;100.00
7662;BME280;30314;48.184;11.510;2023-02-14T08:36:28;97706.00;;;-0.87;100.00
7662;BME280;30314;48.184;11.510;2023-02-14T08:38:55;97724.72;;;-0.68;100.00
7662;BME280;30314;48.184;11.510;2023-02-14T08:41:23;97722.53;;;-0.88;100.00
7662;BME280;30314;48.184;11.510;2023-02-14T08:43:50;97711.81;;;-0.93;100.00
7662;BME280;30314;48.184;11.510;2023-02-14T08:46:16;97701.78;;;-0.96;100.00
7662;BME280;30314;48.184;11.510;2023-02-14T08:48:43;97700.72;;;-0.62;100.00
7662;BME280;30314;48.184;11.510;2023-02-14T08:51:12;97700.44;;;-0.75;100.00
7662;BME280;30314;48.184;11.510;2023-02-14T08:53:39;97723.13;;;-0.77;100.00
7662;BME280;30314;48.184;11.510;2023-02-14T08:56:08;97726.63;;;-0.53;100.00
7662;BME280;30314;48.184;11.510;2023-02-14T08:58:34;97725.00;;;-0.46;100.00
7662;BME280;30314;48.184;11.510;2023-02-14T09:01:07;97700.03;;;-0.55;100.00
7662;BME280;30314;48.184;11.510;2023-02-14T09:03:34;97693.91;;;-0.63;100.00
7662;BME280;30314;48.184;11.510;2023-02-14T09:06:05;97737.06;;;-0.30;100.00
7662;BME280;30314;48.184;11.510;2023-02-14T09:08:31;97717.09;;;-0.61;100.00
7662;BME280;30314;48.184;11.510;2023-02-14T09:11:14;97718.91;;;-0.70;100.00
7662;BME280;30314;48.184;11.510;2023-02-14T09:13:41;97734.13;;;-0.67;100.00
7662;BME280;30314;48.184;11.510;2023-02-14T09:16:10;97725.34;;;-0.58;100.00
7662;BME280;30314;48.184;11.510;2023-02-14T09:18:37;97733.28;;;-0.51;100.00
7662;BME280;30314;48.184;11.510;2023-02-14T09:21:09;97745.13;;;-0.56;100.00
7662;BME280;30314;48.184;11.510;2023-02-14T09:23:37;97737.06;;;-0.62;100.00
7662;BME280;30314;48.184;11.510;2023-02-14T09:26:06;97712.75;;;-0.77;100.00
7662;BME280;30314;48.184;11.510;2023-02-14T09:28:33;97731.38;;;-0.65;100.00
7662;BME280;30314;48.184;11.510;2023-02-14T09:31:08;97723.75;;;-0.67;100.00
7662;BME280;30314;48.184;11.510;2023-02-14T09:33:35;97715.81;;;-0.65;100.00
7662;BME280;30314;48.184;11.510;2023-02-14T09:36:20;97729.41;;;-0.23;100.00
7662;BME280;30314;48.184;11.510;2023-02-14T09:39:05;97727.94;;;-0.18;100.00
7662;BME280;30314;48.184;11.510;2023-02-14T09:41:56;97729.88;;;-0.20;100.00
7662;BME280;30314;48.184;11.510;2023-02-14T09:44:38;97728.06;;;-0.11;100.00
7662;BME280;30314;48.184;11.510;2023-02-14T09:50:09;97714.81;;;0.07;100.00
7662;BME280;30314;48.184;11.510;2023-02-14T09:52:39;97703.03;;;-0.04;100.00
7662;BME280;30314;48.184;11.510;2023-02-14T09:55:12;97718.22;;;0.08;100.00
7662;BME280;30314;48.184;11.510;2023-02-14T10:03:13;97701.06;;;-0.02;100.00
7662;BME280;30314;48.184;11.510;2023-02-14T10:05:55;97723.56;;;0.06;100.00
7662;BME280;30314;48.184;11.510;2023-02-14T10:08:37;97724.69;;;0.12;100.00
7662;BME280;30314;48.184;11.510;2023-02-14T10:11:14;97715.16;;;0.27;100.00
7662;BME280;30314;48.184;11.510;2023-02-14T10:13:47;97715.50;;;0.24;100.00
7662;BME280;30314;48.184;11.510;2023-02-14T10:16:23;97706.06;;;0.47;100.00
7662;BME280;30314;48.184;11.510;2023-02-14T10:21:50;97716.66;;;0.45;100.00
7662;BME280;30314;48.184;11.510;2023-02-14T10:24:30;97713.31;;;0.60;100.00
7662;BME280;30314;48.184;11.510;2023-02-14T10:27:05;97705.25;;;0.69;100.00
7662;BME280;30314;48.184;11.510;2023-02-14T10:29:37;97695.38;;;0.65;100.00
7662;BME280;30314;48.184;11.510;2023-02-14T10:32:12;97696.00;;;0.67;100.00
7662;BME280;30314;48.184;11.510;2023-02-14T10:34:48;97687.88;;;0.70;100.00
7662;BME280;30314;48.184;11.510;2023-02-14T10:37:17;97695.88;;;0.83;100.00
7662;BME280;30314;48.184;11.510;2023-02-14T10:45:49;97700.78;;;1.08;100.00
7662;BME280;30314;48.184;11.510;2023-02-14T10:48:08;97673.25;;;0.84;100.00
7662;BME280;30314;48.184;11.510;2023-02-14T10:50:55;97681.78;;;0.93;100.00
7662;BME280;30314;48.184;11.510;2023-02-14T10:53:27;97683.22;;;0.95;100.00
7662;BME280;30314;48.184;11.510;2023-02-14T10:58:44;97685.81;;;0.95;100.00
7662;BME280;30314;48.184;11.510;2023-02-14T11:01:13;97679.97;;;1.08;100.00
7662;BME280;30314;48.184;11.510;2023-02-14T11:03:55;97670.56;;;1.22;100.00
7662;BME280;30314;48.184;11.510;2023-02-14T11:06:23;97675.31;;;1.19;100.00
7662;BME280;30314;48.184;11.510;2023-02-14T11:08:50;97661.38;;;1.42;100.00
7662;BME280;30314;48.184;11.510;2023-02-14T11:11:23;97656.63;;;1.45;100.00
7662;BME280;30314;48.184;11.510;2023-02-14T11:13:52;97656.78;;;1.59;100.00
7662;BME280;30314;48.184;11.510;2023-02-14T11:16:34;97667.44;;;1.64;100.00
7662;BME280;30314;48.184;11.510;2023-02-14T11:21:42;97646.09;;;1.53;100.00
7662;BME280;30314;48.184;11.510;2023-02-14T11:24:36;97652.13;;;1.54;100.00
7662;BME280;30314;48.184;11.510;2023-02-14T11:27:14;97636.44;;;1.69;100.00
7662;BME280;30314;48.184;11.510;2023-02-14T11:29:44;97637.91;;;1.93;100.00
7662;BME280;30314;48.184;11.510;2023-02-14T11:32:19;97642.53;;;2.20;100.00
7662;BME280;30314;48.184;11.510;2023-02-14T11:35:16;97622.63;;;2.12;100.00
7662;BME280;30314;48.184;11.510;2023-02-14T11:37:49;97630.75;;;2.24;100.00
7662;BME280;30314;48.184;11.510;2023-02-14T11:40:34;97615.16;;;2.31;100.00
7662;BME280;30314;48.184;11.510;2023-02-14T11:45:45;97619.56;;;2.30;100.00
7662;BME280;30314;48.184;11.510;2023-02-14T11:48:33;97620.06;;;2.41;100.00
7662;BME280;30314;48.184;11.510;2023-02-14T11:51:12;97612.41;;;2.39;100.00
7662;BME280;30314;48.184;11.510;2023-02-14T11:53:47;97618.47;;;2.46;100.00
7662;BME280;30314;48.184;11.510;2023-02-14T11:56:17;97612.06;;;2.49;100.00
7662;BME280;30314;48.184;11.510;2023-02-14T11:58:57;97599.81;;;2.43;100.00
7662;BME280;30314;48.184;11.510;2023-02-14T12:01:34;97599.84;;;2.49;100.00
7662;BME280;30314;48.184;11.510;2023-02-14T12:04:11;97594.19;;;2.46;100.00
7662;BME280;30314;48.184;11.510;2023-02-14T12:06:39;97585.66;;;2.59;100.00
7662;BME280;30314;48.184;11.510;2023-02-14T12:09:11;97588.41;;;2.50;100.00
7662;BME280;30314;48.184;11.510;2023-02-14T12:11:37;97583.19;;;2.50;100.00
7662;BME280;30314;48.184;11.510;2023-02-14T12:14:04;97592.84;;;2.50;100.00
7662;BME280;30314;48.184;11.510;2023-02-14T12:16:39;97582.53;;;2.42;100.00
7662;BME280;30314;48.184;11.510;2023-02-14T12:19:28;97568.28;;;2.37;100.00
7662;BME280;30314;48.184;11.510;2023-02-14T12:21:59;97580.72;;;2.42;100.00
7662;BME280;30314;48.184;11.510;2023-02-14T12:24:37;97561.69;;;2.42;100.00
7662;BME280;30314;48.184;11.510;2023-02-14T12:29:53;97577.06;;;2.30;100.00
7662;BME280;30314;48.184;11.510;2023-02-14T12:32:26;97559.03;;;2.35;100.00
7662;BME280;30314;48.184;11.510;2023-02-14T12:35:05;97571.00;;;2.58;100.00
7662;BME280;30314;48.184;11.510;2023-02-14T12:46:31;97562.41;;;2.64;100.00
7662;BME280;30314;48.184;11.510;2023-02-14T12:52:20;97552.00;;;2.71;100.00
7662;BME280;30314;48.184;11.510;2023-02-14T12:57:54;97548.44;;;2.78;100.00
7662;BME280;30314;48.184;11.510;2023-02-14T13:03:26;97535.03;;;2.88;100.00
7662;BME280;30314;48.184;11.510;2023-02-14T13:08:53;97544.88;;;2.93;100.00
7662;BME280;30314;48.184;11.510;2023-02-14T13:11:35;97526.84;;;2.98;100.00
7662;BME280;30314;48.184;11.510;2023-02-14T13:14:33;97538.69;;;3.01;100.00
7662;BME280;30314;48.184;11.510;2023-02-14T13:22:22;97515.94;;;2.81;100.00
7662;BME280;30314;48.184;11.510;2023-02-14T13:24:54;97515.75;;;2.83;100.00
7662;BME280;30314;48.184;11.510;2023-02-14T13:27:26;97512.75;;;2.86;100.00
7662;BME280;30314;48.184;11.510;2023-02-14T13:30:03;97510.59;;;2.96;100.00
7662;BME280;30314;48.184;11.510;2023-02-14T13:32:36;97513.66;;;3.20;100.00
7662;BME280;30314;48.184;11.510;2023-02-14T13:35:05;97502.41;;;3.13;100.00
7662;BME280;30314;48.184;11.510;2023-02-14T13:37:34;97493.31;;;3.08;100.00
7662;BME280;30314;48.184;11.510;2023-02-14T13:40:06;97496.56;;;3.11;100.00
7662;BME280;30314;48.184;11.510;2023-02-14T13:50:39;97469.03;;;3.01;100.00
7662;BME280;30314;48.184;11.510;2023-02-14T13:53:11;97487.50;;;3.06;100.00
7662;BME280;30314;48.184;11.510;2023-02-14T13:55:43;97507.03;;;3.17;100.00
7662;BME280;30314;48.184;11.510;2023-02-14T13:58:19;97479.91;;;3.12;100.00
7662;BME280;30314;48.184;11.510;2023-02-14T14:00:51;97481.09;;;3.16;100.00
7662;BME280;30314;48.184;11.510;2023-02-14T14:10:58;97490.41;;;3.45;100.00
7662;BME280;30314;48.184;11.510;2023-02-14T14:19:02;97489.97;;;3.28;100.00
7662;BME280;30314;48.184;11.510;2023-02-14T14:21:35;97490.34;;;3.18;100.00
7662;BME280;30314;48.184;11.510;2023-02-14T14:24:22;97484.75;;;3.21;100.00
7662;BME280;30314;48.184;11.510;2023-02-14T14:29:38;97484.28;;;3.04;100.00
7662;BME280;30314;48.184;11.510;2023-02-14T14:32:18;97462.38;;;2.92;100.00
7662;BME280;30314;48.184;11.510;2023-02-14T14:34:48;97473.88;;;3.11;100.00
7662;BME280;30314;48.184;11.510;2023-02-14T14:37:21;97482.63;;;2.90;100.00
7662;BME280;30314;48.184;11.510;2023-02-14T14:39:50;97470.19;;;2.85;100.00
7662;BME280;30314;48.184;11.510;2023-02-14T14:42:18;97463.56;;;2.83;100.00
7662;BME280;30314;48.184;11.510;2023-02-14T14:44:51;97461.94;;;2.81;100.00
7662;BME280;30314;48.184;11.510;2023-02-14T14:47:22;97461.31;;;2.79;100.00
7662;BME280;30314;48.184;11.510;2023-02-14T14:49:57;97469.34;;;2.71;100.00
7662;BME280;30314;48.184;11.510;2023-02-14T14:52:35;97460.09;;;2.69;100.00
7662;BME280;30314;48.184;11.510;2023-02-14T14:55:05;97468.06;;;2.60;100.00
7662;BME280;30314;48.184;11.510;2023-02-14T14:57:38;97457.00;;;2.51;100.00
7662;BME280;30314;48.184;11.510;2023-02-14T15:05:37;97462.06;;;2.60;100.00
7662;BME280;30314;48.184;11.510;2023-02-14T15:08:15;97450.13;;;2.37;100.00
7662;BME280;30314;48.184;11.510;2023-02-14T15:10:43;97459.38;;;2.39;100.00